Time;durP1;ratioP1;P1;durP2;ratioP2;P2;SDS_P1;SDS_P2;PMS_P1;PMS_P2;Temp;Humidity;BMP_temperature;BMP_pressure;BME280_temperature;BME280_humidity;BME280_pressure;Samples;Min_cycle;Max_cycle;Signal;HPM_P1;HPM_P2
2022/10/23 00:01:22;;;;;;;6.10;3.33;;;;;;;;;;5055345;27;93025;-79
2022/10/23 00:03:55;;;;;;;4.82;3.63;;;;;;;;;;5054490;27;92456;-79
2022/10/23 00:06:22;;;;;;;5.35;3.55;;;;;;;;;;5037285;27;94207;-79
2022/10/23 00:08:48;;;;;;;4.43;2.88;;;;;;;;;;5052896;27;95826;-78
2022/10/23 00:11:16;;;;;;;5.00;3.30;;;;;;;;;;5040396;27;92513;-78
2022/10/23 00:13:43;;;;;;;5.20;4.07;;;;;;;;;;5036514;27;93411;-78
2022/10/23 00:16:11;;;;;;;4.10;3.42;;;;;;;;;;5054584;27;92486;-79
2022/10/23 00:18:38;;;;;;;3.95;3.47;;;;;;;;;;5054228;27;93117;-78
2022/10/23 00:21:05;;;;;;;5.07;3.63;;;;;;;;;;5055174;27;93209;-79
2022/10/23 00:23:31;;;;;;;7.18;3.53;;;;;;;;;;5054752;27;92595;-78
2022/10/23 00:25:59;;;;;;;4.72;3.33;;;;;;;;;;5055663;27;94035;-78
2022/10/23 00:28:25;;;;;;;4.88;4.35;;;;;;;;;;5054383;27;92598;-79
2022/10/23 00:30:51;;;;;;;4.60;3.20;;;;;;;;;;5054520;27;92751;-79
2022/10/23 00:33:18;;;;;;;4.25;3.58;;;;;;;;;;5055807;27;94833;-79
2022/10/23 00:35:44;;;;;;;4.30;2.88;;;;;;;;;;5054316;27;92433;-79
2022/10/23 00:38:10;;;;;;;4.18;3.08;;;;;;;;;;5054043;27;93167;-78
2022/10/23 00:40:37;;;;;;;8.10;3.47;;;;;;;;;;5054620;27;92490;-79
2022/10/23 00:43:04;;;;;;;3.72;3.10;;;;;;;;;;5054471;27;92465;-79
2022/10/23 00:45:32;;;;;;;4.03;3.55;;;;;;;;;;5054279;27;92962;-79
2022/10/23 00:48:02;;;;;;;4.20;3.55;;;;;;;;;;5039863;27;96874;-79
2022/10/23 00:50:30;;;;;;;8.85;3.00;;;;;;;;;;5058245;27;91703;-79
2022/10/23 00:52:58;;;;;;;3.80;3.45;;;;;;;;;;5058252;27;94292;-78
2022/10/23 00:55:25;;;;;;;2.38;2.03;;;;;;;;;;5061392;27;95859;-78
2022/10/23 00:57:51;;;;;;;3.28;2.97;;;;;;;;;;5038264;27;94891;-79
2022/10/23 01:00:38;;;;;;;3.30;2.95;;;;;;;;;;5039243;27;93718;-78
2022/10/23 01:03:04;;;;;;;3.30;3.00;;;;;;;;;;5039870;27;92449;-79
2022/10/23 01:05:32;;;;;;;7.13;3.35;;;;;;;;;;5057069;27;92646;-78
2022/10/23 01:08:01;;;;;;;3.58;3.05;;;;;;;;;;5057827;27;93419;-79
2022/10/23 01:10:35;;;;;;;5.20;2.90;;;;;;;;;;5057450;27;92520;-79
2022/10/23 01:13:15;;;;;;;4.97;2.90;;;;;;;;;;5057493;27;93209;-79
2022/10/23 01:15:42;;;;;;;;;;;;;;;;;;5040104;27;93021;-78
2022/10/23 01:18:15;;;;;;;3.15;2.83;;;;;;;;;;5061477;27;119076;-79
2022/10/23 01:20:43;;;;;;;3.55;2.88;;;;;;;;;;5056986;27;93730;-79
2022/10/23 01:23:15;;;;;;;3.85;3.45;;;;;;;;;;5055739;27;94799;-79
2022/10/23 01:25:52;;;;;;;3.03;2.72;;;;;;;;;;5057173;27;95507;-79
2022/10/23 01:28:38;;;;;;;2.90;2.45;;;;;;;;;;5057140;27;93437;-78
2022/10/23 01:31:08;;;;;;;3.10;2.65;;;;;;;;;;5056994;27;92959;-79
2022/10/23 01:33:37;;;;;;;3.40;2.47;;;;;;;;;;5057800;27;92515;-79
2022/10/23 01:36:05;;;;;;;2.88;2.58;;;;;;;;;;5038993;27;93410;-79
2022/10/23 01:38:37;;;;;;;2.97;2.55;;;;;;;;;;5060279;27;92444;-79
2022/10/23 01:41:08;;;;;;;3.40;2.90;;;;;;;;;;5039280;27;92709;-78
2022/10/23 01:43:44;;;;;;;3.90;3.47;;;;;;;;;;5039444;27;92569;-79
2022/10/23 01:46:13;;;;;;;3.63;2.47;;;;;;;;;;5056796;27;93070;-79
2022/10/23 01:48:41;;;;;;;3.83;2.72;;;;;;;;;;5037151;27;95779;-79
2022/10/23 01:51:09;;;;;;;2.50;2.30;;;;;;;;;;5056563;27;92604;-78
2022/10/23 01:53:40;;;;;;;2.92;2.70;;;;;;;;;;5056901;27;93143;-79
2022/10/23 01:56:06;;;;;;;;;;;;;;;;;;5057772;27;96567;-79
2022/10/23 01:58:34;;;;;;;2.63;2.42;;;;;;;;;;5056992;27;119212;-79
2022/10/23 02:01:02;;;;;;;4.55;2.70;;;;;;;;;;5041606;27;93133;-79
2022/10/23 02:03:29;;;;;;;2.53;2.30;;;;;;;;;;5038803;27;92394;-79
2022/10/23 02:05:56;;;;;;;3.22;2.40;;;;;;;;;;5038827;27;93263;-78
2022/10/23 02:08:24;;;;;;;3.33;2.70;;;;;;;;;;5056408;27;93400;-79
2022/10/23 02:10:53;;;;;;;3.05;2.22;;;;;;;;;;5039038;27;92444;-79
2022/10/23 02:13:24;;;;;;;4.38;2.15;;;;;;;;;;5036946;27;94805;-79
2022/10/23 02:15:57;;;;;;;3.15;2.20;;;;;;;;;;5056143;27;93493;-79
2022/10/23 02:18:32;;;;;;;2.65;2.40;;;;;;;;;;5038364;27;92451;-79
2022/10/23 02:21:06;;;;;;;3.10;2.78;;;;;;;;;;5038100;27;93108;-78
2022/10/23 02:23:36;;;;;;;12.32;2.22;;;;;;;;;;5059345;27;93431;-79
2022/10/23 02:26:02;;;;;;;;;;;;;;;;;;5056719;27;93503;-79
2022/10/23 02:28:58;;;;;;;5.88;2.40;;;;;;;;;;5057332;27;124120;-79
2022/10/23 02:31:24;;;;;;;2.35;2.15;;;;;;;;;;5025104;27;91790;-79
2022/10/23 02:33:51;;;;;;;4.03;1.92;;;;;;;;;;5056264;27;92546;-78
2022/10/23 02:36:17;;;;;;;3.33;2.28;;;;;;;;;;5055953;27;93796;-78
2022/10/23 02:38:43;;;;;;;2.47;2.28;;;;;;;;;;5054403;27;95910;-79
2022/10/23 02:41:28;;;;;;;2.25;2.03;;;;;;;;;;5037895;27;95506;-78
2022/10/23 02:43:58;;;;;;;2.33;2.13;;;;;;;;;;5056622;27;93231;-78
2022/10/23 02:46:28;;;;;;;1.95;1.85;;;;;;;;;;5059033;27;92443;-78
2022/10/23 02:48:58;;;;;;;3.00;2.40;;;;;;;;;;5056073;27;93672;-79
2022/10/23 02:51:27;;;;;;;2.70;2.28;;;;;;;;;;5038024;27;92733;-79
2022/10/23 02:54:01;;;;;;;2.30;2.10;;;;;;;;;;5056661;27;94957;-78
2022/10/23 02:56:30;;;;;;;2.17;1.98;;;;;;;;;;5056230;27;92426;-78
2022/10/23 02:59:00;;;;;;;4.30;2.42;;;;;;;;;;5038489;27;92385;-78
2022/10/23 03:01:32;;;;;;;2.30;2.10;;;;;;;;;;5055718;27;92972;-78
2022/10/23 03:04:00;;;;;;;2.28;1.92;;;;;;;;;;5053375;27;96144;-78
2022/10/23 03:06:26;;;;;;;3.97;2.10;;;;;;;;;;5037382;27;92549;-78
2022/10/23 03:09:02;;;;;;;1.95;1.85;;;;;;;;;;5058730;27;93475;-79
2022/10/23 03:11:28;;;;;;;4.32;1.65;;;;;;;;;;5054147;27;92479;-78
2022/10/23 03:13:55;;;;;;;2.55;1.92;;;;;;;;;;5037497;27;93114;-79
2022/10/23 03:16:21;;;;;;;2.40;1.67;;;;;;;;;;5052053;27;93752;-79
2022/10/23 03:18:47;;;;;;;3.30;1.70;;;;;;;;;;5055047;27;92461;-79
2022/10/23 03:21:14;;;;;;;3.53;2.10;;;;;;;;;;5055776;27;93099;-79
2022/10/23 03:23:40;;;;;;;3.65;1.85;;;;;;;;;;5055109;27;93447;-79
2022/10/23 03:26:06;;;;;;;1.95;1.80;;;;;;;;;;5055278;27;92429;-79
2022/10/23 03:28:34;;;;;;;2.33;1.75;;;;;;;;;;5053890;27;94763;-79
2022/10/23 03:31:01;;;;;;;3.38;1.98;;;;;;;;;;5040217;27;93451;-79
2022/10/23 03:33:28;;;;;;;8.20;1.75;;;;;;;;;;5055406;27;92781;-78
2022/10/23 03:35:54;;;;;;;1.70;1.58;;;;;;;;;;5055102;27;93823;-78
2022/10/23 03:38:21;;;;;;;2.85;2.20;;;;;;;;;;5055445;27;92548;-78
2022/10/23 03:40:47;;;;;;;2.20;2.00;;;;;;;;;;5055069;27;93138;-79
2022/10/23 03:43:13;;;;;;;2.30;2.05;;;;;;;;;;5037163;27;95631;-79
2022/10/23 03:45:40;;;;;;;2.03;1.80;;;;;;;;;;5055566;27;91877;-78
2022/10/23 03:48:06;;;;;;;2.78;1.83;;;;;;;;;;5037076;27;92438;-78
2022/10/23 03:50:33;;;;;;;3.33;1.92;;;;;;;;;;5039965;27;93437;-79
2022/10/23 03:53:00;;;;;;;4.07;2.05;;;;;;;;;;5053645;27;94656;-79
2022/10/23 03:55:26;;;;;;;1.70;1.60;;;;;;;;;;5036849;27;93444;-79
2022/10/23 03:57:53;;;;;;;1.88;1.77;;;;;;;;;;5054791;27;92477;-79
2022/10/23 04:00:19;;;;;;;2.72;2.08;;;;;;;;;;5054900;27;93449;-79
2022/10/23 04:02:45;;;;;;;3.35;1.98;;;;;;;;;;5054509;27;93446;-78
2022/10/23 04:05:12;;;;;;;2.65;1.80;;;;;;;;;;5054786;27;92474;-79
2022/10/23 04:07:39;;;;;;;2.72;1.80;;;;;;;;;;5054908;27;93535;-79
2022/10/23 04:10:06;;;;;;;3.17;1.60;;;;;;;;;;5037419;27;92667;-79
2022/10/23 04:12:33;;;;;;;2.00;1.80;;;;;;;;;;5057774;27;92460;-79
2022/10/23 04:14:59;;;;;;;1.80;1.70;;;;;;;;;;5036671;27;93474;-78
2022/10/23 04:17:25;;;;;;;1.92;1.60;;;;;;;;;;5053103;27;94829;-78
2022/10/23 04:19:53;;;;;;;2.42;1.95;;;;;;;;;;5037197;27;94149;-79
2022/10/23 04:22:19;;;;;;;2.55;2.22;;;;;;;;;;5056720;27;93472;-79
2022/10/23 04:24:51;;;;;;;1.63;1.40;;;;;;;;;;5041697;27;92431;-79
2022/10/23 04:27:17;;;;;;;2.63;1.80;;;;;;;;;;5058245;27;93107;-79
2022/10/23 04:29:43;;;;;;;2.15;1.50;;;;;;;;;;5039963;27;92550;-78
2022/10/23 04:32:10;;;;;;;2.90;1.83;;;;;;;;;;5058747;27;92428;-79
2022/10/23 04:34:36;;;;;;;1.88;1.75;;;;;;;;;;5061653;27;93408;-79
2022/10/23 04:37:02;;;;;;;2.53;1.70;;;;;;;;;;5057915;27;92448;-79
2022/10/23 04:39:28;;;;;;;1.63;1.52;;;;;;;;;;5057803;27;93035;-79
2022/10/23 04:41:54;;;;;;;2.13;1.65;;;;;;;;;;5056333;27;98496;-78
2022/10/23 04:44:21;;;;;;;2.25;2.00;;;;;;;;;;5040621;27;92490;-78
2022/10/23 04:46:47;;;;;;;1.50;1.40;;;;;;;;;;5057816;27;93401;-79
2022/10/23 04:49:13;;;;;;;2.08;1.90;;;;;;;;;;5057818;27;93779;-79
2022/10/23 04:51:39;;;;;;;3.17;1.60;;;;;;;;;;5040016;27;92435;-79
2022/10/23 04:54:06;;;;;;;1.70;1.60;;;;;;;;;;5039905;27;93138;-79
2022/10/23 04:56:32;;;;;;;3.47;1.90;;;;;;;;;;5042636;27;94751;-78
2022/10/23 04:58:59;;;;;;;1.45;1.35;;;;;;;;;;5040443;27;94193;-78
2022/10/23 05:01:25;;;;;;;1.55;1.45;;;;;;;;;;5057539;27;93626;-79
2022/10/23 05:03:52;;;;;;;1.55;1.40;;;;;;;;;;5056754;27;92478;-78
2022/10/23 05:06:19;;;;;;;1.45;1.38;;;;;;;;;;5038133;27;94978;-79
2022/10/23 05:08:45;;;;;;;2.13;1.70;;;;;;;;;;5057422;27;93389;-79
2022/10/23 05:11:12;;;;;;;1.80;1.70;;;;;;;;;;5057571;27;92633;-78
2022/10/23 05:13:38;;;;;;;3.08;1.50;;;;;;;;;;5039541;27;93123;-79
2022/10/23 05:16:04;;;;;;;2.05;1.60;;;;;;;;;;5057341;27;93453;-79
2022/10/23 05:18:35;;;;;;;1.83;1.73;;;;;;;;;;5060751;27;92466;-79
2022/10/23 05:21:05;;;;;;;1.60;1.50;;;;;;;;;;5038740;27;93294;-79
2022/10/23 05:23:33;;;;;;;1.52;1.38;;;;;;;;;;5058488;27;91726;-79
2022/10/23 05:26:02;;;;;;;3.53;1.65;;;;;;;;;;5057429;27;92397;-79
2022/10/23 05:28:28;;;;;;;1.67;1.55;;;;;;;;;;5038976;27;93430;-79
2022/10/23 05:30:54;;;;;;;1.50;1.38;;;;;;;;;;5055705;27;94904;-79
2022/10/23 05:33:21;;;;;;;2.17;1.88;;;;;;;;;;5055961;27;95457;-79
2022/10/23 05:35:47;;;;;;;4.28;2.00;;;;;;;;;;5056998;27;93784;-79
2022/10/23 05:38:14;;;;;;;2.33;2.10;;;;;;;;;;5056602;27;92516;-79
2022/10/23 05:40:40;;;;;;;2.00;1.90;;;;;;;;;;5059942;27;93131;-78
2022/10/23 05:43:07;;;;;;;2.78;2.00;;;;;;;;;;5056855;27;92762;-79
2022/10/23 05:45:33;;;;;;;2.92;1.63;;;;;;;;;;5056945;27;93132;-79
2022/10/23 05:47:59;;;;;;;1.95;1.75;;;;;;;;;;5039865;27;92494;-79
2022/10/23 05:50:42;;;;;;;1.55;1.45;;;;;;;;;;5056972;27;92537;-78
2022/10/23 05:53:11;;;;;;;3.50;1.90;;;;;;;;;;5057195;27;94191;-78
2022/10/23 05:55:37;;;;;;;2.95;1.65;;;;;;;;;;5054786;27;96095;-79
2022/10/23 05:58:04;;;;;;;2.40;1.70;;;;;;;;;;5038715;27;92412;-78
2022/10/23 06:00:30;;;;;;;2.65;1.70;;;;;;;;;;5042034;27;92535;-79
2022/10/23 06:02:59;;;;;;;1.92;1.63;;;;;;;;;;5056324;27;92496;-79
2022/10/23 06:05:26;;;;;;;1.90;1.67;;;;;;;;;;5056256;27;94186;-78
2022/10/23 06:07:55;;;;;;;1.80;1.58;;;;;;;;;;5057089;27;95557;-79
2022/10/23 06:10:22;;;;;;;2.28;1.80;;;;;;;;;;5056593;27;92595;-79
2022/10/23 06:12:48;;;;;;;2.35;2.05;;;;;;;;;;5057663;27;92865;-79
2022/10/23 06:15:14;;;;;;;3.03;1.48;;;;;;;;;;5038306;27;93401;-79
2022/10/23 06:17:41;;;;;;;2.58;1.92;;;;;;;;;;5038813;27;92494;-79
2022/10/23 06:20:07;;;;;;;2.42;1.80;;;;;;;;;;5054948;27;94744;-78
2022/10/23 06:22:34;;;;;;;2.28;1.80;;;;;;;;;;5059564;27;93338;-78
2022/10/23 06:25:00;;;;;;;2.00;1.80;;;;;;;;;;5056413;27;93136;-79
2022/10/23 06:27:26;;;;;;;1.67;1.58;;;;;;;;;;5056387;27;93397;-79
2022/10/23 06:29:53;;;;;;;1.77;1.67;;;;;;;;;;5056317;27;93092;-79
2022/10/23 06:32:19;;;;;;;1.80;1.70;;;;;;;;;;5056915;27;93001;-78
2022/10/23 06:34:45;;;;;;;1.95;1.77;;;;;;;;;;5038117;27;93435;-78
2022/10/23 06:37:11;;;;;;;1.77;1.67;;;;;;;;;;5056721;27;91778;-78
2022/10/23 06:39:39;;;;;;;1.60;1.50;;;;;;;;;;5055820;27;92394;-79
2022/10/23 06:42:06;;;;;;;2.53;1.80;;;;;;;;;;5055969;27;93750;-79
2022/10/23 06:44:32;;;;;;;2.30;2.08;;;;;;;;;;5039491;27;94869;-79
2022/10/23 06:47:00;;;;;;;1.88;1.70;;;;;;;;;;5055327;27;93479;-78
2022/10/23 06:49:27;;;;;;;2.55;1.77;;;;;;;;;;5038179;27;92486;-79
2022/10/23 06:51:53;;;;;;;1.58;1.48;;;;;;;;;;5056853;27;92873;-79
2022/10/23 06:54:20;;;;;;;2.05;1.83;;;;;;;;;;5038191;27;95535;-79
2022/10/23 06:56:46;;;;;;;1.92;1.70;;;;;;;;;;5056246;27;92488;-79
2022/10/23 06:59:13;;;;;;;3.42;2.13;;;;;;;;;;5055669;27;93098;-79
2022/10/23 07:01:39;;;;;;;2.58;2.00;;;;;;;;;;5037637;27;92829;-79
2022/10/23 07:04:06;;;;;;;1.65;1.55;;;;;;;;;;5055045;27;92588;-79
2022/10/23 07:06:32;;;;;;;1.83;1.73;;;;;;;;;;5058826;27;93080;-79
2022/10/23 07:08:58;;;;;;;3.45;2.13;;;;;;;;;;5053964;27;94878;-79
2022/10/23 07:11:25;;;;;;;2.22;1.70;;;;;;;;;;5037980;27;95613;-79
2022/10/23 07:13:52;;;;;;;4.03;1.90;;;;;;;;;;5055619;27;93438;-79
2022/10/23 07:16:19;;;;;;;1.85;1.75;;;;;;;;;;5055259;27;93326;-79
2022/10/23 07:18:46;;;;;;;2.55;2.35;;;;;;;;;;5055543;27;93075;-79
2022/10/23 07:21:13;;;;;;;2.13;1.92;;;;;;;;;;5037586;27;94623;-79
2022/10/23 07:23:39;;;;;;;2.65;1.60;;;;;;;;;;5056219;27;92506;-78
2022/10/23 07:26:15;;;;;;;2.00;1.80;;;;;;;;;;5055941;27;93156;-79
2022/10/23 07:28:42;;;;;;;2.58;1.85;;;;;;;;;;5058390;27;94879;-78
2022/10/23 07:31:09;;;;;;;4.03;2.60;;;;;;;;;;5056201;27;95001;-79
2022/10/23 07:33:35;;;;;;;2.35;1.83;;;;;;;;;;5035524;27;95648;-79
2022/10/23 07:36:05;;;;;;;2.60;1.67;;;;;;;;;;5055448;27;92434;-79
2022/10/23 07:38:32;;;;;;;2.08;1.98;;;;;;;;;;5055249;27;93067;-79
2022/10/23 07:40:58;;;;;;;1.75;1.60;;;;;;;;;;5055073;27;92583;-79
2022/10/23 07:43:25;;;;;;;3.90;2.20;;;;;;;;;;5055085;27;92681;-78
2022/10/23 07:45:52;;;;;;;1.77;1.67;;;;;;;;;;5055266;27;93104;-79
2022/10/23 07:48:19;;;;;;;3.65;3.03;;;;;;;;;;5037117;27;93491;-79
2022/10/23 07:50:46;;;;;;;3.13;2.10;;;;;;;;;;5058783;27;91704;-79
2022/10/23 07:53:15;;;;;;;2.05;1.70;;;;;;;;;;5055039;27;92401;-79
2022/10/23 07:55:41;;;;;;;2.60;1.90;;;;;;;;;;5036666;27;92685;-78
2022/10/23 07:58:07;;;;;;;1.95;1.70;;;;;;;;;;5053129;27;94761;-79
2022/10/23 08:00:34;;;;;;;2.20;1.48;;;;;;;;;;5054707;27;93402;-78
2022/10/23 08:03:00;;;;;;;2.70;2.50;;;;;;;;;;5055426;27;92417;-79
2022/10/23 08:05:26;;;;;;;2.30;2.15;;;;;;;;;;5055004;27;92412;-79
2022/10/23 08:07:53;;;;;;;1.85;1.73;;;;;;;;;;5054696;27;93424;-79
2022/10/23 08:10:19;;;;;;;2.63;1.92;;;;;;;;;;5058158;27;92522;-79
2022/10/23 08:12:45;;;;;;;3.10;1.90;;;;;;;;;;5054794;27;93454;-79
2022/10/23 08:15:11;;;;;;;1.70;1.60;;;;;;;;;;5055251;27;91713;-79
2022/10/23 08:17:38;;;;;;;2.42;2.22;;;;;;;;;;5036587;27;92401;-79
2022/10/23 08:20:04;;;;;;;4.90;2.40;;;;;;;;;;5054603;27;93443;-79
2022/10/23 08:22:30;;;;;;;1.90;1.70;;;;;;;;;;5053062;27;94822;-79
2022/10/23 08:24:57;;;;;;;2.30;2.10;;;;;;;;;;5054872;27;95209;-79
2022/10/23 08:27:23;;;;;;;2.05;1.58;;;;;;;;;;5036306;27;93785;-79
2022/10/23 08:29:49;;;;;;;1.92;1.83;;;;;;;;;;5036450;27;92746;-79
2022/10/23 08:32:15;;;;;;;3.35;2.30;;;;;;;;;;5039651;27;93111;-79
2022/10/23 08:34:42;;;;;;;2.80;2.60;;;;;;;;;;5055017;27;92439;-79
2022/10/23 08:37:08;;;;;;;1.73;1.63;;;;;;;;;;5036288;27;93097;-79
2022/10/23 08:39:35;;;;;;;2.50;1.80;;;;;;;;;;5055451;27;91694;-78
2022/10/23 08:42:01;;;;;;;1.98;1.77;;;;;;;;;;5054408;27;92413;-79
2022/10/23 08:44:48;;;;;;;3.30;2.90;;;;;;;;;;5054297;27;92976;-79
2022/10/23 08:47:21;;;;;;;2.28;2.05;;;;;;;;;;5034955;27;97407;-79
2022/10/23 08:49:54;;;;;;;3.42;3.05;;;;;;;;;;5054248;27;93090;-79
2022/10/23 08:52:24;;;;;;;2.25;1.98;;;;;;;;;;5054464;27;93406;-79
2022/10/23 08:54:58;;;;;;;2.28;1.80;;;;;;;;;;5039248;27;93459;-79
2022/10/23 08:57:32;;;;;;;3.80;3.42;;;;;;;;;;5054404;27;93113;-79
2022/10/23 08:59:59;;;;;;;2.58;2.00;;;;;;;;;;5035961;27;93516;-79
2022/10/23 09:02:29;;;;;;;2.10;1.90;;;;;;;;;;5054176;27;92725;-78
2022/10/23 09:04:56;;;;;;;1.83;1.67;;;;;;;;;;5054684;27;93162;-79
2022/10/23 09:07:22;;;;;;;3.47;2.13;;;;;;;;;;5054582;27;93411;-79
2022/10/23 09:09:55;;;;;;;2.15;1.92;;;;;;;;;;5039950;27;92558;-79
2022/10/23 09:12:22;;;;;;;2.20;1.98;;;;;;;;;;5056435;27;94815;-79
2022/10/23 09:14:49;;;;;;;1.77;1.67;;;;;;;;;;5039115;27;93752;-78
2022/10/23 09:17:25;;;;;;;2.30;2.05;;;;;;;;;;5060518;27;93497;-79
2022/10/23 09:20:05;;;;;;;5.20;2.08;;;;;;;;;;5039045;27;93533;-79
2022/10/23 09:22:31;;;;;;;2.58;1.98;;;;;;;;;;5057673;27;92488;-79
2022/10/23 09:24:57;;;;;;;5.20;2.38;;;;;;;;;;5057272;27;93158;-79
2022/10/23 09:27:24;;;;;;;2.92;2.10;;;;;;;;;;5056980;27;93473;-78
2022/10/23 09:29:51;;;;;;;2.95;2.15;;;;;;;;;;5058410;27;91626;-79
2022/10/23 09:32:18;;;;;;;3.05;1.98;;;;;;;;;;5057349;27;92552;-79
2022/10/23 09:34:53;;;;;;;3.05;2.05;;;;;;;;;;5057131;27;93353;-79
2022/10/23 09:37:21;;;;;;;2.53;2.33;;;;;;;;;;5037508;27;94913;-79
2022/10/23 09:39:47;;;;;;;4.43;1.73;;;;;;;;;;5060019;27;95826;-79
2022/10/23 09:42:21;;;;;;;3.13;2.58;;;;;;;;;;5057247;27;92483;-79
2022/10/23 09:44:48;;;;;;;3.95;2.20;;;;;;;;;;5056912;27;92635;-79
2022/10/23 09:47:18;;;;;;;3.75;2.80;;;;;;;;;;5056944;27;93766;-79
2022/10/23 09:49:49;;;;;;;3.40;3.10;;;;;;;;;;5057101;27;92464;-79
2022/10/23 09:52:16;;;;;;;3.75;3.45;;;;;;;;;;5039188;27;93528;-79
2022/10/23 09:54:44;;;;;;;3.25;2.78;;;;;;;;;;5057192;27;92936;-79
2022/10/23 09:57:22;;;;;;;2.55;2.20;;;;;;;;;;5056731;27;92414;-79
2022/10/23 09:59:50;;;;;;;5.07;2.70;;;;;;;;;;5059978;27;94388;-79
2022/10/23 10:02:23;;;;;;;5.85;2.45;;;;;;;;;;5055008;27;94912;-79
2022/10/23 10:04:49;;;;;;;2.30;2.10;;;;;;;;;;5056353;27;95492;-79
2022/10/23 10:07:19;;;;;;;3.35;2.50;;;;;;;;;;5038548;27;93693;-79
2022/10/23 10:09:45;;;;;;;2.77;2.30;;;;;;;;;;5038770;27;92516;-79
2022/10/23 10:12:21;;;;;;;3.35;2.50;;;;;;;;;;5039041;27;92924;-79
2022/10/23 10:14:51;;;;;;;2.28;2.08;;;;;;;;;;5056565;27;93441;-79
2022/10/23 10:17:36;;;;;;;4.78;1.98;;;;;;;;;;5057087;27;93120;-79
2022/10/23 10:20:03;;;;;;;3.28;2.95;;;;;;;;;;5038153;27;93118;-79
2022/10/23 10:22:41;;;;;;;3.90;3.50;;;;;;;;;;5059350;27;92482;-79
2022/10/23 10:25:15;;;;;;;2.53;2.33;;;;;;;;;;5056412;27;93147;-79
2022/10/23 10:27:47;;;;;;;2.60;2.28;;;;;;;;;;5054857;27;95628;-79
2022/10/23 10:30:16;;;;;;;4.00;3.22;;;;;;;;;;5056675;27;93027;-79
2022/10/23 10:32:46;;;;;;;5.47;2.55;;;;;;;;;;5056303;27;93226;-79
2022/10/23 10:35:36;;;;;;;2.38;2.17;;;;;;;;;;5038584;27;97066;-79
2022/10/23 10:38:17;;;;;;;4.30;3.15;;;;;;;;;;5038394;27;92460;-79
2022/10/23 10:40:50;;;;;;;1.67;1.48;;;;;;;;;;5056746;27;93223;-79
2022/10/23 10:43:28;;;;;;;2.45;1.98;;;;;;;;;;5038329;27;93397;-79
2022/10/23 10:46:04;;;;;;;3.30;2.92;;;;;;;;;;5041903;27;91731;-79
2022/10/23 10:49:09;;;;;;;5.00;4.50;;;;;;;;;;5037936;27;93442;-79
2022/10/23 10:51:44;;;;;;;3.30;1.90;;;;;;;;;;4938274;28;92472;-80
2022/10/23 10:54:13;;;;;;;2.85;2.35;;;;;;;;;;4952709;28;94887;-79
2022/10/23 10:56:41;;;;;;;2.75;1.73;;;;;;;;;;4937211;28;93660;-79
2022/10/23 10:59:14;;;;;;;2.35;2.15;;;;;;;;;;4937627;28;92494;-78
2022/10/23 11:01:41;;;;;;;2.45;2.25;;;;;;;;;;4953832;28;93266;-79
2022/10/23 11:04:26;;;;;;;2.58;2.13;;;;;;;;;;4936696;28;95082;-79
2022/10/23 11:06:55;;;;;;;4.45;1.88;;;;;;;;;;4938179;28;92527;-79
2022/10/23 11:09:26;;;;;;;2.88;2.17;;;;;;;;;;4956322;28;93082;-79
2022/10/23 11:11:52;;;;;;;2.65;2.15;;;;;;;;;;4937953;28;91762;-79
2022/10/23 11:14:22;;;;;;;2.95;2.22;;;;;;;;;;4953667;28;92629;-79
2022/10/23 11:16:49;;;;;;;;;;;;;;;;;;4937261;28;93465;-79
2022/10/23 11:19:15;;;;;;;2.40;1.98;;;;;;;;;;4952819;28;115802;-79
2022/10/23 11:21:43;;;;;;;2.42;2.22;;;;;;;;;;4952482;28;95744;-79
2022/10/23 11:24:10;;;;;;;2.00;1.70;;;;;;;;;;5035106;28;93778;-79
2022/10/23 11:26:51;;;;;;;4.05;2.42;;;;;;;;;;5034736;28;92378;-79
2022/10/23 11:29:17;;;;;;;2.08;1.70;;;;;;;;;;5035816;28;96207;-79
2022/10/23 11:31:51;;;;;;;1.98;1.42;;;;;;;;;;5019390;28;94446;-79
2022/10/23 11:34:36;;;;;;;3.03;2.35;;;;;;;;;;5035364;28;93120;-79
2022/10/23 11:37:05;;;;;;;2.40;1.70;;;;;;;;;;5035154;28;92691;-79
2022/10/23 11:39:32;;;;;;;1.97;1.67;;;;;;;;;;5035437;28;92439;-79
2022/10/23 11:42:10;;;;;;;2.00;1.80;;;;;;;;;;5034659;28;93096;-79
2022/10/23 11:44:39;;;;;;;1.75;1.58;;;;;;;;;;5033840;28;95614;-79
2022/10/23 11:47:24;;;;;;;3.13;1.90;;;;;;;;;;5052846;27;92450;-79
2022/10/23 11:49:51;;;;;;;1.85;1.67;;;;;;;;;;5037269;27;93086;-79
2022/10/23 11:52:21;;;;;;;1.95;1.83;;;;;;;;;;5054923;27;93403;-79
2022/10/23 11:54:47;;;;;;;;;;;;;;;;;;5059192;27;92397;-79
2022/10/23 11:57:14;;;;;;;1.65;1.50;;;;;;;;;;5055637;27;123998;-79
2022/10/23 11:59:44;;;;;;;1.70;1.60;;;;;;;;;;5055680;27;92463;-79
2022/10/23 12:02:30;;;;;;;1.45;1.27;;;;;;;;;;5037574;27;92886;-78
2022/10/23 12:05:26;;;;;;;1.60;1.50;;;;;;;;;;5053956;27;93481;-79
2022/10/23 12:07:54;;;;;;;2.28;1.60;;;;;;;;;;5054487;27;92420;-78
2022/10/23 12:10:29;;;;;;;2.20;2.03;;;;;;;;;;5035361;27;94870;-79
2022/10/23 12:12:59;;;;;;;1.95;1.35;;;;;;;;;;5054494;27;93797;-79
2022/10/23 12:15:26;;;;;;;;;;;;;;;;;;5058245;27;92445;-79
2022/10/23 12:17:53;;;;;;;1.73;1.60;;;;;;;;;;5037480;27;122481;-79
2022/10/23 12:20:29;;;;;;;3.22;1.50;;;;;;;;;;5036932;27;92470;-79
2022/10/23 12:22:58;;;;;;;2.60;1.58;;;;;;;;;;5054644;27;93137;-79
2022/10/23 12:25:50;;;;;;;2.42;1.70;;;;;;;;;;5036946;27;94546;-79
2022/10/23 12:28:35;;;;;;;1.98;1.75;;;;;;;;;;5055276;27;91727;-79
2022/10/23 12:31:10;;;;;;;2.38;1.63;;;;;;;;;;5054792;27;92537;-78
2022/10/23 12:33:39;;;;;;;3.53;1.70;;;;;;;;;;5054529;27;93389;-79
2022/10/23 12:36:08;;;;;;;1.65;1.55;;;;;;;;;;5053050;27;94847;-79
2022/10/23 12:38:38;;;;;;;1.45;1.35;;;;;;;;;;5039897;27;95505;-79
2022/10/23 12:41:08;;;;;;;2.28;1.38;;;;;;;;;;5054542;27;92503;-78
2022/10/23 12:43:36;;;;;;;2.00;1.80;;;;;;;;;;5056851;27;93081;-79
2022/10/23 12:46:06;;;;;;;2.00;1.67;;;;;;;;;;5057945;27;93639;-78
2022/10/23 12:48:32;;;;;;;;;;;;;;;;;;5058505;27;92397;-79
2022/10/23 12:50:58;;;;;;;1.65;1.40;;;;;;;;;;5040928;27;123469;-79
2022/10/23 12:53:25;;;;;;;2.38;1.80;;;;;;;;;;5058169;27;92699;-79
2022/10/23 12:55:59;;;;;;;1.50;1.40;;;;;;;;;;5057686;27;92436;-78
2022/10/23 12:58:31;;;;;;;1.50;1.38;;;;;;;;;;5040586;27;92440;-79
2022/10/23 13:00:59;;;;;;;2.17;1.98;;;;;;;;;;5059622;27;96125;-79
2022/10/23 13:03:26;;;;;;;2.42;1.88;;;;;;;;;;5057514;27;95443;-79
2022/10/23 13:05:54;;;;;;;1.60;1.50;;;;;;;;;;5039620;27;96205;-79
2022/10/23 13:08:21;;;;;;;1.40;1.30;;;;;;;;;;5057337;27;92457;-78
2022/10/23 13:10:48;;;;;;;4.22;1.63;;;;;;;;;;5057637;27;93071;-79
2022/10/23 13:13:18;;;;;;;1.55;1.45;;;;;;;;;;5057146;27;93430;-79
2022/10/23 13:15:45;;;;;;;2.63;1.60;;;;;;;;;;5057632;27;92491;-79
2022/10/23 13:18:13;;;;;;;2.45;2.00;;;;;;;;;;5058178;27;93103;-79
2022/10/23 13:20:41;;;;;;;3.03;1.75;;;;;;;;;;5039003;27;93907;-79
2022/10/23 13:23:30;;;;;;;1.27;1.25;;;;;;;;;;5042461;27;92444;-79
2022/10/23 13:25:59;;;;;;;2.50;1.87;;;;;;;;;;5025331;27;96276;-80
2022/10/23 13:28:30;;;;;;;1.73;1.55;;;;;;;;;;5057354;27;92850;-79
2022/10/23 13:31:01;;;;;;;1.55;1.45;;;;;;;;;;5057799;27;93286;-79
2022/10/23 13:33:51;;;;;;;1.58;1.40;;;;;;;;;;5057579;27;95339;-78
2022/10/23 13:36:18;;;;;;;1.95;1.48;;;;;;;;;;5057225;27;92467;-79
2022/10/23 13:39:11;;;;;;;2.95;1.50;;;;;;;;;;5057295;27;92968;-79
2022/10/23 13:41:42;;;;;;;1.95;1.40;;;;;;;;;;5056785;27;93431;-79
2022/10/23 13:44:10;;;;;;;1.77;1.50;;;;;;;;;;5057308;27;91790;-79
2022/10/23 13:46:36;;;;;;;1.40;1.30;;;;;;;;;;5042003;27;92718;-79
2022/10/23 13:49:02;;;;;;;2.90;2.03;;;;;;;;;;5057182;27;92855;-79
2022/10/23 13:51:30;;;;;;;3.05;1.30;;;;;;;;;;5055520;27;94796;-79
2022/10/23 13:53:56;;;;;;;1.80;1.15;;;;;;;;;;5055926;27;93759;-79
2022/10/23 13:56:24;;;;;;;1.90;1.70;;;;;;;;;;5038774;27;92504;-79
2022/10/23 13:58:51;;;;;;;2.05;1.40;;;;;;;;;;5056946;27;93099;-79
2022/10/23 14:01:28;;;;;;;2.63;1.77;;;;;;;;;;5056709;27;93482;-79
2022/10/23 14:03:55;;;;;;;2.83;2.20;;;;;;;;;;5056159;27;92453;-79
2022/10/23 14:06:21;;;;;;;2.10;1.70;;;;;;;;;;5056244;27;93160;-79
2022/10/23 14:08:48;;;;;;;5.32;1.70;;;;;;;;;;5041722;27;92707;-79
2022/10/23 14:11:15;;;;;;;2.25;1.85;;;;;;;;;;5057047;27;92462;-79
2022/10/23 14:13:42;;;;;;;1.67;1.58;;;;;;;;;;5038407;27;93417;-79
2022/10/23 14:16:09;;;;;;;2.28;1.40;;;;;;;;;;5055402;27;94826;-79
2022/10/23 14:18:36;;;;;;;2.13;1.92;;;;;;;;;;5056524;27;95488;-79
2022/10/23 14:21:03;;;;;;;1.55;1.45;;;;;;;;;;5057010;27;96021;-79
2022/10/23 14:23:29;;;;;;;2.25;2.05;;;;;;;;;;5056233;27;92541;-79
2022/10/23 14:26:02;;;;;;;1.67;1.58;;;;;;;;;;5056447;27;92964;-79
2022/10/23 14:28:28;;;;;;;2.40;1.50;;;;;;;;;;5059688;27;96802;-79
2022/10/23 14:30:54;;;;;;;1.60;1.50;;;;;;;;;;5038447;27;93063;-79
2022/10/23 14:33:21;;;;;;;1.60;1.50;;;;;;;;;;5039227;27;95525;-79
2022/10/23 14:35:50;;;;;;;2.58;1.90;;;;;;;;;;5056099;27;92559;-79
2022/10/23 14:38:16;;;;;;;2.53;2.33;;;;;;;;;;5056258;27;93221;-79
2022/10/23 14:40:42;;;;;;;2.60;2.25;;;;;;;;;;5054127;27;95783;-80
2022/10/23 14:43:08;;;;;;;2.33;1.70;;;;;;;;;;5038092;27;92498;-79
2022/10/23 14:45:36;;;;;;;1.60;1.50;;;;;;;;;;5056898;27;93561;-79
2022/10/23 14:48:02;;;;;;;3.38;2.28;;;;;;;;;;5037731;27;93801;-79
2022/10/23 14:50:33;;;;;;;3.33;1.70;;;;;;;;;;5040791;27;92426;-79
2022/10/23 14:52:59;;;;;;;1.95;1.40;;;;;;;;;;5038164;27;93417;-79
2022/10/23 14:55:30;;;;;;;3.45;2.42;;;;;;;;;;5038723;27;92468;-79
2022/10/23 14:57:57;;;;;;;2.42;1.80;;;;;;;;;;5038438;27;93168;-79